createdAt,value
2023-01-09T00:06:37.494Z,98
2023-01-09T00:16:37.794Z,99
2023-01-09T00:26:38.408Z,100
2023-01-09T00:36:39.349Z,100
2023-01-09T00:46:39.873Z,100
2023-01-09T00:56:40.795Z,100
2023-01-09T01:16:41.495Z,100
2023-01-09T01:26:41.816Z,100
2023-01-09T01:36:42.337Z,100
2023-01-09T01:46:43.100Z,100
2023-01-09T01:56:43.581Z,100
2023-01-09T02:06:43.723Z,100
2023-01-09T02:16:44.562Z,100
2023-01-09T02:26:44.957Z,100
2023-01-09T02:36:45.303Z,100
2023-01-09T02:46:46.299Z,100
2023-01-09T02:56:46.582Z,100
2023-01-09T03:16:48.038Z,100
2023-01-09T03:26:48.579Z,100
2023-01-09T03:36:49.065Z,100
2023-01-09T03:46:49.548Z,99
2023-01-09T03:56:50.534Z,98
2023-01-09T04:16:51.654Z,98
2023-01-09T04:26:51.817Z,98
2023-01-09T04:36:52.574Z,98
2023-01-09T04:46:53.053Z,98
2023-01-09T04:56:53.531Z,97
2023-01-09T05:06:53.994Z,97
2023-01-09T05:16:54.440Z,97
2023-01-09T05:26:55.169Z,97
2023-01-09T05:36:55.246Z,96
2023-01-09T05:56:56.430Z,95
2023-01-09T06:06:57.032Z,94
2023-01-09T06:16:57.938Z,94
2023-01-09T06:36:58.945Z,93
2023-01-09T07:07:00.974Z,96
2023-01-09T07:27:02.955Z,96
2023-01-09T07:37:03.153Z,95
2023-01-09T07:57:04.510Z,94
2023-01-09T08:07:04.928Z,93
2023-01-09T08:17:05.036Z,92
2023-01-09T08:37:05.655Z,93
2023-01-09T09:27:09.205Z,96
2023-01-09T09:37:09.832Z,97
2023-01-09T09:47:10.605Z,96
2023-01-09T09:57:11.316Z,95
2023-01-09T10:07:11.433Z,96
2023-01-09T10:17:12.280Z,96
2023-01-09T10:37:12.838Z,95
2023-01-09T10:57:13.796Z,96
2023-01-09T11:17:15.134Z,96
2023-01-09T11:27:16.234Z,96
2023-01-09T11:37:16.887Z,96
2023-01-09T11:57:18.157Z,96
2023-01-09T12:07:19.232Z,95
2023-01-09T12:17:19.727Z,94
2023-01-09T12:37:20.799Z,93
2023-01-09T12:47:20.993Z,93
2023-01-09T13:07:22.647Z,93
2023-01-09T13:27:23.979Z,95
2023-01-09T13:47:24.944Z,97
2023-01-09T13:57:25.392Z,97
2023-01-09T14:07:25.576Z,97
2023-01-09T14:27:26.756Z,97
2023-01-09T14:37:27.456Z,96
2023-01-09T14:47:28.219Z,96
2023-01-09T14:57:28.776Z,96
2023-01-09T15:07:28.949Z,95
2023-01-09T15:17:29.421Z,96
2023-01-09T15:27:29.650Z,96
2023-01-09T15:37:30.479Z,96
2023-01-09T15:47:30.699Z,96
2023-01-09T15:57:31.648Z,96
2023-01-09T16:27:33.168Z,98
2023-01-09T16:37:33.295Z,98
2023-01-09T16:47:33.488Z,99
2023-01-09T16:57:34.148Z,99
2023-01-09T17:17:35.208Z,99
2023-01-09T17:27:35.582Z,99
2023-01-09T17:37:35.945Z,99
2023-01-09T17:47:36.383Z,99
2023-01-09T17:57:37.249Z,99
2023-01-09T18:07:38.049Z,98
2023-01-09T18:17:38.244Z,98
2023-01-09T18:27:39.302Z,98
2023-01-09T18:37:39.621Z,98
2023-01-09T18:47:40.014Z,98
2023-01-09T18:57:40.645Z,98
2023-01-09T19:07:41.467Z,99
2023-01-09T19:17:42.132Z,99
2023-01-09T19:27:42.537Z,99
2023-01-09T19:37:42.990Z,99
2023-01-09T19:57:44.191Z,98
2023-01-09T20:07:45.145Z,98
2023-01-09T20:17:46.204Z,99
2023-01-09T20:27:46.383Z,99
2023-01-09T20:37:46.538Z,99
2023-01-09T20:47:47.152Z,99
2023-01-09T20:57:47.720Z,99
2023-01-09T21:17:48.802Z,98
2023-01-09T21:27:49.022Z,99
2023-01-09T21:37:49.548Z,99
2023-01-09T21:47:49.783Z,99
2023-01-09T21:57:50.668Z,99
2023-01-09T22:07:51.750Z,99
2023-01-09T22:17:52.640Z,100
2023-01-09T22:27:53.657Z,100
2023-01-09T22:37:54.235Z,100
2023-01-09T22:47:54.501Z,100
2023-01-09T22:57:54.818Z,100
2023-01-09T23:17:55.570Z,100
2023-01-09T23:27:55.719Z,100
2023-01-09T23:37:56.150Z,100
2023-01-09T23:47:56.646Z,100
2023-01-09T23:57:56.859Z,100
